createdAt,value
2022-12-19T00:01:33.864Z,10.23
2022-12-19T00:04:07.063Z,12.43
2022-12-19T00:06:35.825Z,10.13
2022-12-19T00:09:03.289Z,11.70
2022-12-19T00:11:30.539Z,11.23
2022-12-19T00:13:58.697Z,13.00
2022-12-19T00:16:28.410Z,11.00
2022-12-19T00:18:58.415Z,10.20
2022-12-19T00:21:28.163Z,13.27
2022-12-19T00:23:55.262Z,10.20
2022-12-19T00:26:25.988Z,11.07
2022-12-19T00:29:01.471Z,12.63
2022-12-19T00:31:31.076Z,11.53
2022-12-19T00:33:58.648Z,11.00
2022-12-19T00:36:28.737Z,12.67
2022-12-19T00:38:57.113Z,10.17
2022-12-19T00:41:32.338Z,11.70
2022-12-19T00:44:04.972Z,13.00
2022-12-19T00:46:33.526Z,13.30
2022-12-19T00:49:00.696Z,10.80
2022-12-19T00:51:30.211Z,12.93
2022-12-19T00:53:58.042Z,12.27
2022-12-19T00:56:28.341Z,11.10
2022-12-19T00:58:55.920Z,11.10
2022-12-19T01:01:28.994Z,11.23
2022-12-19T01:04:27.065Z,11.33
2022-12-19T01:06:45.226Z,11.83
2022-12-19T01:09:12.956Z,11.50
2022-12-19T01:11:58.266Z,10.87
2022-12-19T01:14:25.071Z,11.13
2022-12-19T01:16:51.910Z,10.60
2022-12-19T01:19:19.742Z,11.67
2022-12-19T01:21:46.610Z,12.03
2022-12-19T01:24:13.726Z,13.17
2022-12-19T01:26:44.296Z,11.90
2022-12-19T01:29:10.965Z,12.67
2022-12-19T01:31:37.746Z,11.60
2022-12-19T01:34:04.509Z,10.93
2022-12-19T01:36:32.271Z,12.03
2022-12-19T01:38:58.980Z,11.33
2022-12-19T01:41:25.893Z,12.47
2022-12-19T01:43:59.864Z,12.83
2022-12-19T01:46:41.591Z,10.57
2022-12-19T01:49:25.088Z,9.30
2022-12-19T01:51:53.849Z,12.03
2022-12-19T01:54:30.199Z,11.20
2022-12-19T01:56:59.589Z,12.33
2022-12-19T01:59:37.656Z,12.77
2022-12-19T02:02:11.990Z,10.03
2022-12-19T02:04:40.754Z,11.13
2022-12-19T02:07:15.968Z,10.60
2022-12-19T02:09:46.314Z,10.97
2022-12-19T02:12:13.510Z,10.43
2022-12-19T02:14:41.449Z,13.03
2022-12-19T02:17:47.718Z,11.90
2022-12-19T02:20:47.531Z,11.83
2022-12-19T02:23:23.224Z,10.43
2022-12-19T02:26:23.682Z,11.60
2022-12-19T02:29:34.777Z,9.67
2022-12-19T02:32:07.602Z,11.33
2022-12-19T02:34:59.085Z,12.03
2022-12-19T02:37:33.673Z,9.10
2022-12-19T02:40:23.229Z,10.50
2022-12-19T02:42:57.395Z,10.67
2022-12-19T02:45:28.782Z,10.60
2022-12-19T02:47:58.685Z,11.83
2022-12-19T02:50:37.145Z,9.50
2022-12-19T02:53:03.870Z,8.90
2022-12-19T02:55:38.192Z,11.47
2022-12-19T02:58:38.483Z,9.87
2022-12-19T03:01:15.103Z,11.30
2022-12-19T03:03:59.229Z,12.43
2022-12-19T03:06:37.340Z,11.07
2022-12-19T03:09:03.997Z,10.30
2022-12-19T03:11:35.870Z,10.73
2022-12-19T03:14:07.453Z,12.30
2022-12-19T03:16:36.604Z,12.83
2022-12-19T03:19:04.577Z,11.73
2022-12-19T03:21:44.021Z,11.07
2022-12-19T03:24:13.093Z,11.47
2022-12-19T03:26:45.841Z,12.20
2022-12-19T03:29:23.538Z,11.80
2022-12-19T03:31:51.945Z,11.20
2022-12-19T03:34:23.187Z,12.27
2022-12-19T03:36:55.373Z,9.97
2022-12-19T03:39:27.358Z,12.17
2022-12-19T03:42:15.020Z,12.23
2022-12-19T03:44:42.880Z,9.73
2022-12-19T03:47:31.220Z,11.67
2022-12-19T03:49:57.895Z,12.37
2022-12-19T03:52:50.617Z,13.20
2022-12-19T03:55:24.431Z,10.87
2022-12-19T03:57:57.598Z,11.60
2022-12-19T04:00:25.768Z,13.20
2022-12-19T04:02:55.614Z,10.53
2022-12-19T04:05:25.134Z,10.50
2022-12-19T04:07:55.455Z,11.40
2022-12-19T04:10:25.962Z,11.63
2022-12-19T04:12:56.542Z,11.73
2022-12-19T04:15:34.003Z,11.47
2022-12-19T04:18:04.959Z,12.07
2022-12-19T04:20:34.213Z,10.90
2022-12-19T04:23:06.902Z,12.13
2022-12-19T04:25:45.981Z,9.23
2022-12-19T04:28:32.085Z,11.77
2022-12-19T04:30:59.951Z,10.63
2022-12-19T04:33:26.721Z,11.37
2022-12-19T04:35:53.479Z,12.13
2022-12-19T04:38:21.504Z,11.77
2022-12-19T04:40:48.336Z,12.00
2022-12-19T04:43:15.045Z,11.60
2022-12-19T04:45:42.224Z,12.90
2022-12-19T04:48:09.289Z,12.20
2022-12-19T04:50:36.417Z,11.20
2022-12-19T04:53:03.613Z,12.97
2022-12-19T04:55:30.286Z,12.10
2022-12-19T04:57:57.108Z,12.63
2022-12-19T05:00:24.035Z,12.10
2022-12-19T05:02:50.881Z,12.33
2022-12-19T05:05:18.963Z,11.40
2022-12-19T05:07:46.942Z,11.20
2022-12-19T05:10:13.750Z,12.43
2022-12-19T05:12:40.410Z,10.50
2022-12-19T05:15:07.662Z,12.00
2022-12-19T05:17:34.360Z,11.37
2022-12-19T05:20:01.117Z,12.83
2022-12-19T05:22:28.156Z,12.43
2022-12-19T05:24:54.840Z,12.43
2022-12-19T05:27:21.728Z,11.37
2022-12-19T05:29:48.421Z,11.40
2022-12-19T05:32:15.776Z,12.37
2022-12-19T05:34:42.638Z,12.63
2022-12-19T05:37:09.302Z,11.60
2022-12-19T05:39:36.038Z,12.60
2022-12-19T05:42:02.715Z,12.77
2022-12-19T05:44:29.423Z,12.97
2022-12-19T05:46:56.166Z,12.53
2022-12-19T05:49:22.854Z,12.60
2022-12-19T05:51:51.164Z,12.77
2022-12-19T05:54:18.018Z,12.87
2022-12-19T05:56:44.992Z,12.67
2022-12-19T05:59:11.885Z,12.37
2022-12-19T06:01:41.727Z,11.57
2022-12-19T06:04:08.476Z,13.03
2022-12-19T06:06:35.164Z,11.13
2022-12-19T06:09:02.733Z,12.47
2022-12-19T06:11:29.545Z,12.10
2022-12-19T06:14:01.066Z,11.90
2022-12-19T06:16:27.849Z,12.63
2022-12-19T06:18:54.707Z,12.30
2022-12-19T06:21:23.051Z,13.13
2022-12-19T06:23:50.360Z,11.60
2022-12-19T06:26:20.397Z,12.30
2022-12-19T06:28:51.644Z,13.43
2022-12-19T06:31:20.583Z,11.77
2022-12-19T06:33:47.396Z,13.40
2022-12-19T06:36:16.169Z,11.57
2022-12-19T06:38:43.220Z,13.07
2022-12-19T06:41:29.859Z,13.17
2022-12-19T06:44:05.142Z,12.77
2022-12-19T06:46:33.331Z,12.73
2022-12-19T06:49:00.360Z,12.83
2022-12-19T06:51:27.224Z,12.70
2022-12-19T06:53:54.372Z,12.20
2022-12-19T06:56:21.078Z,12.73
2022-12-19T06:58:48.380Z,13.37
2022-12-19T07:01:31.481Z,12.33
2022-12-19T07:03:59.008Z,13.50
2022-12-19T07:06:25.690Z,12.40
2022-12-19T07:08:53.196Z,12.10
2022-12-19T07:11:19.841Z,13.37
2022-12-19T07:13:46.532Z,13.73
2022-12-19T07:16:13.285Z,13.47
2022-12-19T07:18:41.326Z,13.77
2022-12-19T07:21:11.365Z,12.20
2022-12-19T07:23:39.268Z,12.10
2022-12-19T07:26:06.296Z,12.07
2022-12-19T07:28:34.318Z,13.13
2022-12-19T07:31:01.091Z,13.77
2022-12-19T07:33:27.854Z,12.80
2022-12-19T07:35:54.528Z,14.17
2022-12-19T07:38:21.240Z,13.63
2022-12-19T07:40:47.965Z,13.97
2022-12-19T07:43:14.627Z,13.70
2022-12-19T07:45:41.527Z,13.80
2022-12-19T07:48:08.748Z,14.50
2022-12-19T07:50:35.604Z,15.17
2022-12-19T07:53:02.393Z,14.27
2022-12-19T07:55:29.378Z,13.60
2022-12-19T07:57:56.095Z,14.63
2022-12-19T08:00:23.359Z,14.77
2022-12-19T08:02:50.189Z,13.30
2022-12-19T08:05:16.995Z,14.60
2022-12-19T08:07:46.628Z,12.13
2022-12-19T08:10:14.924Z,14.93
2022-12-19T08:12:41.981Z,13.90
2022-12-19T08:15:09.272Z,13.63
2022-12-19T08:17:38.772Z,13.60
2022-12-19T08:20:07.479Z,13.30
2022-12-19T08:22:34.840Z,14.33
2022-12-19T08:25:01.555Z,14.27
2022-12-19T08:27:28.322Z,14.53
2022-12-19T08:29:55.012Z,12.93
2022-12-19T08:32:21.998Z,12.80
2022-12-19T08:34:50.112Z,13.87
2022-12-19T08:37:17.574Z,15.13
2022-12-19T08:39:44.500Z,15.27
2022-12-19T08:42:11.250Z,13.93
2022-12-19T08:44:37.953Z,14.87
2022-12-19T08:47:05.113Z,14.20
2022-12-19T08:49:31.902Z,12.77
2022-12-19T08:51:58.636Z,14.40
2022-12-19T08:54:25.360Z,15.07
2022-12-19T08:56:52.052Z,15.17
2022-12-19T08:59:24.218Z,15.20
2022-12-19T09:01:59.733Z,13.97
2022-12-19T09:05:58.840Z,14.80
2022-12-19T09:07:16.342Z,14.47
2022-12-19T09:09:44.292Z,15.63
2022-12-19T09:12:13.313Z,13.73
2022-12-19T09:14:42.046Z,13.50
2022-12-19T09:17:09.448Z,14.33
2022-12-19T09:19:36.226Z,14.80
2022-12-19T09:22:02.949Z,15.33
2022-12-19T09:24:29.755Z,13.37
2022-12-19T09:26:56.453Z,13.33
2022-12-19T09:29:23.219Z,12.47
2022-12-19T09:31:55.394Z,13.83
2022-12-19T09:34:37.073Z,22.23
2022-12-19T09:37:17.115Z,15.07
2022-12-19T09:39:48.149Z,14.20
2022-12-19T09:42:27.891Z,14.13
2022-12-19T09:45:32.439Z,14.00
2022-12-19T09:48:01.500Z,14.90
2022-12-19T09:50:56.298Z,15.27
2022-12-19T09:53:54.288Z,14.43
2022-12-19T09:56:23.710Z,11.60
2022-12-19T09:58:58.218Z,13.37
2022-12-19T10:01:39.027Z,14.67
2022-12-19T10:04:12.230Z,12.43
2022-12-19T10:07:16.837Z,13.40
2022-12-19T10:12:00.215Z,14.40
2022-12-19T10:12:52.882Z,13.60
2022-12-19T10:15:46.294Z,12.43
2022-12-19T10:18:31.951Z,12.30
2022-12-19T10:22:15.845Z,12.87
2022-12-19T10:24:56.660Z,13.20
2022-12-19T10:27:59.456Z,12.93
2022-12-19T10:30:31.802Z,12.13
2022-12-19T10:33:01.761Z,13.73
2022-12-19T10:35:41.411Z,13.87
2022-12-19T10:38:08.010Z,12.80
2022-12-19T10:40:43.991Z,12.20
2022-12-19T10:43:32.779Z,12.73
2022-12-19T10:46:11.537Z,12.23
2022-12-19T10:48:38.302Z,11.40
2022-12-19T10:51:06.498Z,11.73
2022-12-19T10:53:34.303Z,11.13
2022-12-19T10:56:11.360Z,11.70
2022-12-19T10:58:42.147Z,10.43
2022-12-19T11:01:24.665Z,10.10
2022-12-19T11:04:26.964Z,11.10
2022-12-19T11:07:17.427Z,10.77
2022-12-19T11:09:52.427Z,11.10
2022-12-19T11:16:30.339Z,11.20
2022-12-19T11:19:41.628Z,9.80
2022-12-19T11:27:28.840Z,10.73
2022-12-19T11:29:27.630Z,10.90
2022-12-19T11:29:32.818Z,12.47
2022-12-19T11:30:48.365Z,14.40
2022-12-19T11:32:41.870Z,14.43
2022-12-19T11:35:17.020Z,10.40
2022-12-19T11:37:47.114Z,12.30
2022-12-19T11:40:22.600Z,11.07
2022-12-19T11:43:41.848Z,11.87
2022-12-19T11:45:55.156Z,10.27
2022-12-19T11:48:52.031Z,11.17
2022-12-19T11:51:22.242Z,10.63
2022-12-19T11:54:30.193Z,10.37
2022-12-19T11:56:57.781Z,11.30
2022-12-19T11:59:32.167Z,10.43
2022-12-19T12:02:36.665Z,9.87
2022-12-19T12:05:09.880Z,10.80
2022-12-19T12:08:48.596Z,10.40
2022-12-19T12:15:58.505Z,10.57
2022-12-19T12:24:06.254Z,11.23
2022-12-19T12:28:19.532Z,10.60
2022-12-19T12:31:09.192Z,10.40
2022-12-19T12:31:13.483Z,10.63
2022-12-19T12:31:50.992Z,11.20
2022-12-19T12:31:57.405Z,11.07
2022-12-19T12:35:43.568Z,12.17
2022-12-19T12:40:45.930Z,11.17
2022-12-19T12:43:39.986Z,10.83
2022-12-19T12:46:14.912Z,10.63
2022-12-19T12:48:56.046Z,10.20
2022-12-19T12:51:25.714Z,10.50
2022-12-19T12:53:58.825Z,11.37
2022-12-19T12:56:26.112Z,11.67
2022-12-19T12:58:54.413Z,10.60
2022-12-19T13:01:37.835Z,11.27
2022-12-19T13:04:10.488Z,11.37
2022-12-19T13:06:38.856Z,11.03
2022-12-19T13:09:30.526Z,12.00
2022-12-19T13:12:18.583Z,9.90
2022-12-19T13:14:50.673Z,10.37
2022-12-19T13:17:52.537Z,10.87
2022-12-19T13:20:19.212Z,10.00
2022-12-19T13:22:59.168Z,9.60
2022-12-19T13:25:34.764Z,9.30
2022-12-19T13:28:01.354Z,10.17
2022-12-19T13:30:50.552Z,10.23
2022-12-19T13:33:22.069Z,10.60
2022-12-19T13:38:58.015Z,9.57
2022-12-19T13:39:59.029Z,11.73
2022-12-19T13:42:00.280Z,9.77
2022-12-19T13:44:27.917Z,9.57
2022-12-19T13:46:55.372Z,10.07
2022-12-19T13:49:35.096Z,9.73
2022-12-19T13:52:04.335Z,10.30
2022-12-19T13:54:45.540Z,10.80
2022-12-19T13:57:22.263Z,10.47
2022-12-19T14:00:00.476Z,10.23
2022-12-19T14:02:44.370Z,10.30
2022-12-19T14:05:31.930Z,10.53
2022-12-19T14:08:21.610Z,9.87
2022-12-19T14:11:40.883Z,9.47
2022-12-19T14:14:10.258Z,10.73
2022-12-19T14:16:45.550Z,9.93
2022-12-19T14:19:40.294Z,10.43
2022-12-19T14:22:33.398Z,10.57
2022-12-19T14:25:33.406Z,10.40
2022-12-19T14:28:24.867Z,10.47
2022-12-19T14:30:49.099Z,10.97
2022-12-19T14:33:45.355Z,10.87
2022-12-19T14:36:16.031Z,10.27
2022-12-19T14:39:21.975Z,10.60
2022-12-19T14:42:01.723Z,10.67
2022-12-19T14:53:51.973Z,11.27
2022-12-19T14:54:04.080Z,10.60
2022-12-19T14:54:05.506Z,11.17
2022-12-19T14:54:33.737Z,10.60
2022-12-19T14:59:04.647Z,11.10
2022-12-19T15:01:34.689Z,11.17
2022-12-19T15:04:51.681Z,11.67
2022-12-19T15:07:07.694Z,11.30
2022-12-19T15:11:06.607Z,11.60
2022-12-19T15:14:53.992Z,11.60
2022-12-19T15:16:24.886Z,12.73
2022-12-19T15:18:54.039Z,10.73
2022-12-19T15:21:23.360Z,12.53
2022-12-19T15:23:52.083Z,11.77
2022-12-19T15:26:28.687Z,11.17
2022-12-19T15:28:56.873Z,13.47
2022-12-19T15:31:38.433Z,13.10
2022-12-19T15:37:16.548Z,11.97
2022-12-19T15:39:44.648Z,13.37
2022-12-19T15:42:29.520Z,13.13
2022-12-19T15:44:58.017Z,12.80
2022-12-19T15:47:37.079Z,14.40
2022-12-19T15:50:23.104Z,13.90
2022-12-19T15:52:52.357Z,13.97
2022-12-19T15:55:19.986Z,13.67
2022-12-19T15:57:51.779Z,14.03
2022-12-19T16:00:26.878Z,14.23
2022-12-19T16:05:42.077Z,13.30
2022-12-19T16:08:18.016Z,14.03
2022-12-19T16:10:47.264Z,14.47
2022-12-19T16:13:35.257Z,14.20
2022-12-19T16:16:09.198Z,14.40
2022-12-19T16:18:42.546Z,16.27
2022-12-19T16:21:19.002Z,16.13
2022-12-19T16:23:45.850Z,17.57
2022-12-19T16:26:27.725Z,17.97
2022-12-19T16:28:54.784Z,18.47
2022-12-19T16:31:24.503Z,20.80
2022-12-19T16:33:51.689Z,20.47
2022-12-19T16:36:18.540Z,21.53
2022-12-19T16:38:45.653Z,26.10
2022-12-19T16:41:22.805Z,21.00
2022-12-19T16:43:49.819Z,22.63
2022-12-19T16:46:19.591Z,20.57
2022-12-19T16:48:47.603Z,18.43
2022-12-19T16:51:20.617Z,18.67
2022-12-19T16:53:48.789Z,19.23
2022-12-19T16:56:38.705Z,17.30
2022-12-19T16:59:21.662Z,18.30
2022-12-19T17:01:49.396Z,17.27
2022-12-19T17:04:19.466Z,17.40
2022-12-19T17:06:46.470Z,17.97
2022-12-19T17:09:18.903Z,17.93
2022-12-19T17:11:48.914Z,17.73
2022-12-19T17:14:20.033Z,17.63
2022-12-19T17:16:47.895Z,19.23
2022-12-19T17:19:57.553Z,18.43
2022-12-19T17:22:24.500Z,19.57
2022-12-19T17:24:51.507Z,20.63
2022-12-19T17:27:19.296Z,19.17
2022-12-19T17:29:47.271Z,20.00
2022-12-19T17:32:23.298Z,19.73
2022-12-19T17:34:50.887Z,19.77
2022-12-19T17:37:17.717Z,20.53
2022-12-19T17:39:44.447Z,21.90
2022-12-19T17:42:19.807Z,20.60
2022-12-19T17:44:46.526Z,21.90
2022-12-19T17:47:16.242Z,23.43
2022-12-19T17:49:43.279Z,21.73
2022-12-19T17:52:19.013Z,20.93
2022-12-19T17:54:46.995Z,19.43
2022-12-19T17:57:15.307Z,21.57
2022-12-19T17:59:42.465Z,21.03
2022-12-19T18:02:26.287Z,20.80
2022-12-19T18:04:53.564Z,20.60
2022-12-19T18:07:20.615Z,20.00
2022-12-19T18:09:48.697Z,20.03
2022-12-19T18:12:15.356Z,21.03
2022-12-19T18:14:42.135Z,20.47
2022-12-19T18:17:12.906Z,21.00
2022-12-19T18:19:41.478Z,21.03
2022-12-19T18:22:13.415Z,20.07
2022-12-19T18:24:40.465Z,20.70
2022-12-19T18:27:08.010Z,19.87
2022-12-19T18:29:36.171Z,21.47
2022-12-19T18:32:03.500Z,22.10
2022-12-19T18:34:31.374Z,21.73
2022-12-19T18:36:58.346Z,21.90
2022-12-19T18:39:27.511Z,22.70
2022-12-19T18:41:54.800Z,22.83
2022-12-19T18:44:24.574Z,22.23
2022-12-19T18:46:52.384Z,22.60
2022-12-19T18:49:19.562Z,21.37
2022-12-19T18:51:50.001Z,23.08
2022-12-19T18:54:22.117Z,23.80
2022-12-19T18:56:48.767Z,23.93
2022-12-19T18:59:15.621Z,23.67
2022-12-19T19:01:46.166Z,23.30
2022-12-19T19:04:17.905Z,24.13
2022-12-19T19:06:51.110Z,24.40
2022-12-19T19:09:20.355Z,25.13
2022-12-19T19:11:47.281Z,24.20
2022-12-19T19:14:14.640Z,24.73
2022-12-19T19:16:41.566Z,23.37
2022-12-19T19:19:15.023Z,22.80
2022-12-19T19:21:42.926Z,24.10
2022-12-19T19:24:16.443Z,22.90
2022-12-19T19:26:43.386Z,23.43
2022-12-19T19:29:10.982Z,22.33
2022-12-19T19:31:40.853Z,23.13
2022-12-19T19:34:29.398Z,23.93
2022-12-19T19:36:59.272Z,22.27
2022-12-19T19:39:27.858Z,24.20
2022-12-19T19:41:56.413Z,23.73
2022-12-19T19:44:23.149Z,23.17
2022-12-19T19:46:50.014Z,23.57
2022-12-19T19:49:16.948Z,22.40
2022-12-19T19:51:43.744Z,22.70
2022-12-19T19:54:10.429Z,22.50
2022-12-19T19:56:37.233Z,22.67
2022-12-19T19:59:04.553Z,20.23
2022-12-19T20:01:31.897Z,22.77
2022-12-19T20:03:58.767Z,21.97
2022-12-19T20:06:25.648Z,22.53
2022-12-19T20:08:52.416Z,22.77
2022-12-19T20:11:20.500Z,20.77
2022-12-19T20:13:47.378Z,20.60
2022-12-19T20:16:16.998Z,21.00
2022-12-19T20:18:49.188Z,22.00
2022-12-19T20:21:16.721Z,22.10
2022-12-19T20:23:44.217Z,21.70
2022-12-19T20:26:14.036Z,21.67
2022-12-19T20:28:47.702Z,21.73
2022-12-19T20:31:16.119Z,22.30
2022-12-19T20:33:43.013Z,23.77
2022-12-19T20:36:11.834Z,23.07
2022-12-19T20:38:39.515Z,23.47
2022-12-19T20:41:06.832Z,23.10
2022-12-19T20:43:34.280Z,26.67
2022-12-19T20:46:09.843Z,25.87
2022-12-19T20:48:38.456Z,24.07
2022-12-19T20:51:06.709Z,22.60
2022-12-19T20:53:35.087Z,21.27
2022-12-19T20:56:03.526Z,22.00
2022-12-19T20:58:32.248Z,21.17
2022-12-19T21:01:13.356Z,22.90
2022-12-19T21:03:40.878Z,22.33
2022-12-19T21:06:09.655Z,21.20
2022-12-19T21:08:37.146Z,20.40
2022-12-19T21:11:05.971Z,19.93
2022-12-19T21:13:33.099Z,20.27
2022-12-19T21:16:04.467Z,20.17
2022-12-19T21:18:31.201Z,20.47
2022-12-19T21:20:58.976Z,19.93
2022-12-19T21:23:26.048Z,20.83
2022-12-19T21:25:56.287Z,19.53
2022-12-19T21:28:22.941Z,20.23
2022-12-19T21:30:59.628Z,19.57
2022-12-19T21:33:27.541Z,19.37
2022-12-19T21:35:54.569Z,19.43
2022-12-19T21:38:21.613Z,20.07
2022-12-19T21:40:48.491Z,19.17
2022-12-19T21:43:15.125Z,18.83
2022-12-19T21:45:41.863Z,18.80
2022-12-19T21:48:08.632Z,19.17
2022-12-19T21:50:35.460Z,19.20
2022-12-19T21:53:02.069Z,18.43
2022-12-19T21:55:28.759Z,19.70
2022-12-19T21:57:55.442Z,18.00
2022-12-19T22:00:22.429Z,19.97
2022-12-19T22:03:12.109Z,18.80
2022-12-19T22:05:36.113Z,17.33
2022-12-19T22:08:02.850Z,17.87
2022-12-19T22:10:29.545Z,17.97
2022-12-19T22:12:56.198Z,17.97
2022-12-19T22:15:22.869Z,17.53
2022-12-19T22:17:49.788Z,18.00
2022-12-19T22:20:16.545Z,17.67
2022-12-19T22:22:43.282Z,17.33
2022-12-19T22:25:10.176Z,17.03
2022-12-19T22:27:36.839Z,16.30
2022-12-19T22:30:10.940Z,16.87
2022-12-19T22:32:38.075Z,16.73
2022-12-19T22:35:05.279Z,17.13
2022-12-19T22:37:32.028Z,15.67
2022-12-19T22:40:00.475Z,16.87
2022-12-19T22:42:28.395Z,16.53
2022-12-19T22:44:55.083Z,16.67
2022-12-19T22:47:21.851Z,16.40
2022-12-19T22:49:52.097Z,15.37
2022-12-19T22:52:19.236Z,15.43
2022-12-19T22:54:45.947Z,16.40
2022-12-19T22:57:12.866Z,15.57
2022-12-19T22:59:40.485Z,16.03
2022-12-19T23:02:07.381Z,15.33
2022-12-19T23:04:36.012Z,15.03
2022-12-19T23:07:02.974Z,15.43
2022-12-19T23:09:30.085Z,15.53
2022-12-19T23:11:56.889Z,15.20
2022-12-19T23:14:23.802Z,15.23
2022-12-19T23:16:50.526Z,15.00
2022-12-19T23:19:17.929Z,13.63
2022-12-19T23:21:45.114Z,15.07
2022-12-19T23:24:12.509Z,14.63
2022-12-19T23:26:39.805Z,13.50
2022-12-19T23:29:10.394Z,13.73
2022-12-19T23:31:41.121Z,14.77
2022-12-19T23:34:08.027Z,13.13
2022-12-19T23:39:21.644Z,13.47
2022-12-19T23:41:48.436Z,13.90
2022-12-19T23:44:15.437Z,14.27
2022-12-19T23:46:42.155Z,13.03
2022-12-19T23:49:08.836Z,13.27
2022-12-19T23:51:35.554Z,14.03
2022-12-19T23:54:02.267Z,12.90
2022-12-19T23:56:31.556Z,13.87
2022-12-19T23:58:59.028Z,12.83
